Create Custom Reports and Graphics: Custom Report

Kelseyville Remote

Current Conditions

11/28/22 3:45 AM (-08:00)
Updated Every 15 Minutes
Temp 35.7 °F   4.2
RH 82 %   0
Dew Pt 30.8 °F   4.0
Wet Bulb 33.8 °F   4.0
BatVolt 12.8 V   0.0
Month Precip 1.24 In
Season Precip 3.23 In

Today & Yesterday

Kelseyville Remote

11/28/22 3:45 AM (-08:00)
Updated Every 15 Minutes
Daily Max Temp 42.3 °F   9.5
Time of Max Temp 0245
Daily Min Temp 35.0 °F   5.4
Time of Min Temp 0315
Daily Rain 0.00 In
Yest MaxT 68.3 °F
Yest MinT 27.5 °F
Yest Precip 0.00 In

Last 7 Days

Kelseyville Remote

Hourly Data | America/Los_Angeles
as of 11/28/22 3:55 AM PST
Date & Time Temp (°F) RH (%) Dew Pt (°F) Wet Bulb (°F) BatVolt (V) Latest Rain (In) Daily Rain (In) Daily Min Temp (°F) Daily Max Temp (°F)
11/28/22 - 0300 39.2 77 32.6 36.5 12.9 0.00 0.00 35.1 42.3
11/28/22 - 0200 37.5 78 31.4 35.1 12.9 0.00 0.00 35.1 38.7
11/28/22 - 0100 36.2 78 30.0 33.8 12.9 0.00 0.00 35.1 37.2
11/28/22 - 0000 36.8 76 29.9 34.1 12.9 0.00 0.00 27.5 68.3
11/27/22 - 2300 39.4 71 30.8 36.0 12.9 0.00 0.00 27.5 68.3
11/27/22 - 2200 41.0 69 31.5 37.1 12.9 0.00 0.00 27.5 68.3
11/27/22 - 2100 40.8 68 31.0 36.8 13.0 0.00 0.00 27.5 68.3
11/27/22 - 2000 43.6 63 31.7 38.6 13.0 0.00 0.00 27.5 68.3
11/27/22 - 1900 46.7 57 32.2 40.5 13.0 0.00 0.00 27.5 68.3
11/27/22 - 1800 52.2 47 32.5 43.3 13.1 0.00 0.00 27.5 68.3
11/27/22 - 1700 62.4 32 31.6 47.4 13.2 0.00 0.00 27.5 68.3
11/27/22 - 1600 66.0 28 32.2 49.0 13.7 0.00 0.00 27.5 68.2
11/27/22 - 1500 65.7 30 33.5 49.4 13.7 0.00 0.00 27.5 66.6
11/27/22 - 1400 62.7 32 32.4 47.8 13.7 0.00 0.00 27.5 65.9
11/27/22 - 1300 58.0 39 33.4 46.3 13.8 0.00 0.00 27.5 59.8
11/27/22 - 1200 54.8 49 36.0 45.9 13.8 0.00 0.00 27.5 56.0
11/27/22 - 1100 53.0 51 35.5 44.8 13.9 0.00 0.00 27.5 54.5
11/27/22 - 1000 48.9 58 34.9 42.7 13.9 0.00 0.00 27.5 50.7
11/27/22 - 0900 40.9 70 31.7 37.1 14.1 0.00 0.00 27.5 46.3
11/27/22 - 0800 28.6 88 25.4 27.4 14.3 0.00 0.00 27.5 33.9
11/27/22 - 0700 28.1 87 24.8 26.9 12.7 0.00 0.00 27.5 32.8
11/27/22 - 0600 28.8 86 25.1 27.4 12.7 0.00 0.00 28.0 32.8
11/27/22 - 0500 29.7 85 25.8 28.3 12.8 0.00 0.00 28.9 32.8
11/27/22 - 0400 31.5 83 27.0 29.8 12.8 0.00 0.00 29.7 32.8
11/27/22 - 0300 31.2 84 26.9 29.6 12.8 0.00 0.00 29.7 32.8
11/27/22 - 0200 30.6 84 26.3 29.0 12.8 0.00 0.00 29.7 32.8
11/27/22 - 0100 31.6 81 26.6 29.7 12.9 0.00 0.00 30.8 32.8
11/27/22 - 0000 33.2 79 27.3 31.0 12.9 0.00 0.00 31.3 67.7
11/26/22 - 2300 34.9 76 28.3 32.4 12.9 0.00 0.00 33.8 67.7
11/26/22 - 2200 37.0 72 28.9 33.9 12.9 0.00 0.00 34.0 67.7
11/26/22 - 2100 40.5 65 29.6 36.2 13.0 0.00 0.00 34.0 67.7
11/26/22 - 2000 41.7 63 30.1 37.0 13.0 0.00 0.00 34.0 67.7
11/26/22 - 1900 44.9 57 30.5 38.9 13.0 0.00 0.00 34.0 67.7
11/26/22 - 1800 51.1 46 31.1 42.3 13.0 0.00 0.00 34.0 67.7
11/26/22 - 1700 63.2 28 29.1 47.0 13.2 0.00 0.00 34.0 67.7
11/26/22 - 1600 67.1 24 28.7 48.4 13.7 0.00 0.00 34.0 67.7
11/26/22 - 1500 66.2 24 28.8 48.1 13.7 0.00 0.00 34.0 67.4
11/26/22 - 1400 63.8 28 30.2 47.6 13.7 0.00 0.00 34.0 65.4
11/26/22 - 1300 61.1 32 31.3 46.8 13.7 0.00 0.00 34.0 62.5
11/26/22 - 1200 57.9 39 33.2 46.2 13.8 0.00 0.00 34.0 59.8
11/26/22 - 1100 55.1 46 34.7 45.5 13.8 0.00 0.00 34.0 56.2
11/26/22 - 1000 53.9 44 32.4 44.1 13.8 0.00 0.00 34.0 55.5
11/26/22 - 0900 45.8 58 31.6 39.8 14.0 0.00 0.00 34.0 51.5
11/26/22 - 0800 36.4 74 29.0 33.5 14.1 0.00 0.00 34.0 41.1
11/26/22 - 0700 39.9 67 30.0 36.0 12.8 0.00 0.00 34.0 41.1
11/26/22 - 0600 40.6 66 30.1 36.4 12.8 0.00 0.00 34.0 41.1
11/26/22 - 0500 40.4 65 29.7 36.1 12.8 0.00 0.00 34.0 40.7
11/26/22 - 0400 40.4 62 28.6 35.8 12.8 0.00 0.00 34.0 40.7
11/26/22 - 0300 38.7 64 27.6 34.4 12.9 0.00 0.00 34.0 40.1
11/26/22 - 0200 34.8 71 26.4 31.7 12.9 0.00 0.00 34.0 37.5
11/26/22 - 0100 35.8 71 27.2 32.5 12.9 0.00 0.00 34.0 37.5
11/26/22 - 0000 38.5 66 28.3 34.5 12.9 0.00 0.00 30.9 71.2
11/25/22 - 2300 39.9 63 28.4 35.4 12.9 0.00 0.00 30.9 71.2
11/25/22 - 2200 42.8 58 28.8 37.2 13.0 0.00 0.00 30.9 71.2
11/25/22 - 2100 44.8 54 29.0 38.3 13.0 0.00 0.00 30.9 71.2
11/25/22 - 2000 43.9 51 27.0 37.2 13.0 0.00 0.00 30.9 71.2
11/25/22 - 1900 46.5 46 26.6 38.4 13.0 0.00 0.00 30.9 71.2
11/25/22 - 1800 53.9 33 25.4 41.8 13.1 0.00 0.00 30.9 71.2
11/25/22 - 1700 63.0 22 23.5 45.3 13.2 0.00 0.00 30.9 71.2
11/25/22 - 1600 68.5 16 19.9 46.7 13.6 0.00 0.00 30.9 71.2
11/25/22 - 1500 69.6 16 21.3 47.4 13.6 0.00 0.00 30.9 71.2
11/25/22 - 1400 67.1 21 25.8 47.6 13.6 0.00 0.00 30.9 68.2
11/25/22 - 1300 63.6 30 31.3 47.8 13.7 0.00 0.00 30.9 65.5
11/25/22 - 1200 60.9 33 31.2 46.7 13.8 0.00 0.00 30.9 63.6
11/25/22 - 1100 55.9 38 30.8 44.4 13.8 0.00 0.00 30.9 57.8
11/25/22 - 1000 51.1 42 28.8 41.5 13.9 0.00 0.00 30.9 55.9
11/25/22 - 0900 42.3 56 27.4 36.4 14.0 0.00 0.00 30.9 45.9
11/25/22 - 0800 32.5 75 25.4 29.9 14.2 0.00 0.00 30.9 41.6
11/25/22 - 0700 31.6 75 24.5 29.1 12.7 0.00 0.00 30.9 41.6
11/25/22 - 0600 31.5 74 24.3 29.0 12.8 0.00 0.00 30.9 41.6
11/25/22 - 0500 32.8 71 24.4 29.8 12.8 0.00 0.00 31.7 41.6
11/25/22 - 0400 36.3 63 25.1 32.2 12.8 0.00 0.00 33.7 41.6
11/25/22 - 0300 37.3 65 26.4 33.2 12.8 0.00 0.00 36.7 41.6
11/25/22 - 0200 39.2 60 26.7 34.4 12.9 0.00 0.00 37.6 41.6
11/25/22 - 0100 39.3 59 26.4 34.4 12.9 0.00 0.00 38.2 41.6
11/25/22 - 0000 41.7 53 25.8 35.6 12.9 0.00 0.00 27.6 73.6
11/24/22 - 2300 43.4 59 30.1 38.0 13.0 0.00 0.00 27.6 73.6
11/24/22 - 2200 50.5 47 30.4 41.9 12.9 0.00 0.00 27.6 73.6
11/24/22 - 2100 53.3 27 20.1 40.1 13.0 0.00 0.00 27.6 73.6
11/24/22 - 2000 54.6 26 20.3 40.8 13.0 0.00 0.00 27.6 73.6
11/24/22 - 1900 57.8 23 20.0 42.2 13.0 0.00 0.00 27.6 73.6
11/24/22 - 1800 61.7 17 16.7 43.3 13.1 0.00 0.00 27.6 73.6
11/24/22 - 1700 70.2 11 13.5 46.1 13.2 0.00 0.00 27.6 73.6
11/24/22 - 1600 72.6 10 11.9 46.8 13.6 0.00 0.00 27.6 73.6
11/24/22 - 1500 72.9 10 13.3 47.2 13.6 0.00 0.00 27.6 73.6
11/24/22 - 1400 69.6 16 20.7 47.3 13.6 0.00 0.00 27.6 70.6
11/24/22 - 1300 65.4 16 18.5 45.2 13.7 0.00 0.00 27.6 68.2
11/24/22 - 1200 61.2 26 26.1 45.3 13.8 0.00 0.00 27.6 62.6
11/24/22 - 1100 57.1 38 31.7 45.3 13.8 0.00 0.00 27.6 59.9
11/24/22 - 1000 51.1 45 30.7 42.2 13.9 0.00 0.00 27.6 54.1
11/24/22 - 0900 41.5 61 28.9 36.4 14.0 0.00 0.00 27.6 47.4
11/24/22 - 0800 30.6 82 25.6 28.7 14.2 0.00 0.00 27.6 35.5
11/24/22 - 0700 28.6 83 24.1 27.0 12.7 0.00 0.00 27.6 33.9
11/24/22 - 0600 29.2 82 24.4 27.5 12.8 0.00 0.00 28.6 33.9
11/24/22 - 0500 30.4 80 25.0 28.5 12.8 0.00 0.00 29.4 33.9
11/24/22 - 0400 30.3 82 25.4 28.5 12.8 0.00 0.00 29.4 33.9
11/24/22 - 0300 31.3 81 26.0 29.3 12.8 0.00 0.00 30.5 33.9
11/24/22 - 0200 32.0 80 26.5 29.9 12.9 0.00 0.00 31.3 33.9
11/24/22 - 0100 33.2 79 27.4 31.0 12.9 0.00 0.00 32.7 33.9
11/24/22 - 0000 34.1 78 27.8 31.7 12.9 0.00 0.00 29.1 71.2
11/23/22 - 2300 35.9 76 29.0 33.2 12.9 0.00 0.00 29.1 71.2
11/23/22 - 2200 37.8 73 29.9 34.7 12.9 0.00 0.00 29.1 71.2
11/23/22 - 2100 40.0 70 31.0 36.3 13.0 0.00 0.00 29.1 71.2
11/23/22 - 2000 42.3 67 32.0 38.0 13.0 0.00 0.00 29.1 71.2
11/23/22 - 1900 45.8 64 34.3 40.8 13.0 0.00 0.00 29.1 71.2
11/23/22 - 1800 51.6 61 38.5 45.5 13.1 0.00 0.00 29.1 71.2
11/23/22 - 1700 64.7 39 39.0 51.1 13.2 0.00 0.00 29.1 71.2
11/23/22 - 1600 70.1 24 31.5 50.4 13.6 0.00 0.00 29.1 71.2
11/23/22 - 1500 67.6 31 36.1 51.0 13.6 0.00 0.00 29.1 69.0
11/23/22 - 1400 65.0 36 37.0 50.4 13.7 0.00 0.00 29.1 66.2
11/23/22 - 1300 61.5 45 39.8 50.3 13.7 0.00 0.00 29.1 63.0
11/23/22 - 1200 57.6 56 41.8 49.6 13.8 0.00 0.00 29.1 60.1
11/23/22 - 1100 56.1 58 41.4 48.8 13.8 0.00 0.00 29.1 57.9
11/23/22 - 1000 52.6 62 39.9 46.6 13.9 0.00 0.00 29.1 55.6
11/23/22 - 0900 42.3 80 36.5 39.8 14.0 0.00 0.00 29.1 48.6
11/23/22 - 0800 30.7 91 28.3 29.7 14.2 0.00 0.00 29.1 36.5
11/23/22 - 0700 30.2 91 27.8 29.2 12.7 0.00 0.00 29.3 36.5
11/23/22 - 0600 31.1 90 28.5 30.0 12.8 0.00 0.00 30.4 36.5
11/23/22 - 0500 31.2 90 28.5 30.1 12.8 0.00 0.00 30.9 36.5
11/23/22 - 0400 32.7 89 29.9 31.5 12.8 0.00 0.00 31.4 36.5
11/23/22 - 0300 33.6 89 30.6 32.4 12.9 0.00 0.00 32.6 36.5
11/23/22 - 0200 34.1 88 31.0 32.8 12.9 0.00 0.00 32.8 36.5
11/23/22 - 0100 35.6 87 32.1 34.2 12.9 0.00 0.00 35.0 36.5
11/23/22 - 0000 38.4 85 34.3 36.7 12.9 0.00 0.00 28.1 69.0
11/22/22 - 2300 40.1 82 35.1 38.0 13.0 0.00 0.00 28.1 69.0
11/22/22 - 2200 43.2 78 36.9 40.5 13.0 0.00 0.00 28.1 69.0
11/22/22 - 2100 43.0 77 36.4 40.2 13.0 0.00 0.00 28.1 69.0
11/22/22 - 2000 47.1 70 37.6 42.9 13.0 0.00 0.00 28.1 69.0
11/22/22 - 1900 51.1 60 37.8 44.9 13.0 0.00 0.00 28.1 69.0
11/22/22 - 1800 53.5 55 37.8 46.0 13.1 0.00 0.00 28.1 69.0
11/22/22 - 1700 61.4 44 39.2 49.9 13.2 0.00 0.00 28.1 69.0
11/22/22 - 1600 65.8 36 38.3 51.2 13.7 0.00 0.00 28.1 69.0
11/22/22 - 1500 68.1 33 37.7 51.8 13.7 0.00 0.00 28.1 69.0
11/22/22 - 1400 65.0 32 34.7 49.5 13.7 0.00 0.00 28.1 68.4
11/22/22 - 1300 58.8 39 34.0 46.8 13.8 0.00 0.00 28.1 62.2
11/22/22 - 1200 56.9 39 32.0 45.3 13.8 0.00 0.00 28.1 59.3
11/22/22 - 1100 51.4 49 32.6 43.0 13.9 0.00 0.00 28.1 53.6
11/22/22 - 1000 46.2 55 30.9 39.7 14.0 0.00 0.00 28.1 49.8
11/22/22 - 0900 37.9 70 28.8 34.3 14.1 0.00 0.00 28.1 42.4
11/22/22 - 0800 30.4 84 26.1 28.8 14.0 0.00 0.00 28.1 32.4
11/22/22 - 0700 28.8 85 24.8 27.3 12.7 0.00 0.00 28.1 32.4
11/22/22 - 0600 28.7 84 24.6 27.2 12.7 0.00 0.00 28.1 32.4
11/22/22 - 0500 29.2 84 24.9 27.6 12.8 0.00 0.00 28.9 32.4
11/22/22 - 0400 29.4 83 24.8 27.7 12.8 0.00 0.00 29.0 32.4
11/22/22 - 0300 30.1 82 25.2 28.3 12.8 0.00 0.00 29.7 32.4
11/22/22 - 0200 30.5 81 25.2 28.6 12.8 0.00 0.00 30.2 32.4
11/22/22 - 0100 31.8 78 25.8 29.6 12.9 0.00 0.00 30.9 32.4
11/22/22 - 0000 32.2 78 26.1 30.0 12.9 0.00 0.00 24.4 67.7
11/21/22 - 2300 33.3 75 26.1 30.6 12.9 0.00 0.00 24.4 67.7
11/21/22 - 2200 34.9 71 26.6 31.8 12.9 0.00 0.00 24.4 67.7
11/21/22 - 2100 37.2 67 27.1 33.3 12.9 0.00 0.00 24.4 67.7
11/21/22 - 2000 39.8 60 27.2 34.9 13.0 0.00 0.00 24.4 67.7
11/21/22 - 1900 44.0 51 26.9 37.2 13.0 0.00 0.00 24.4 67.7
11/21/22 - 1800 48.5 43 27.0 39.6 13.1 0.00 0.00 24.4 67.7
11/21/22 - 1700 63.0 22 21.8 45.0 13.2 0.00 0.00 24.4 67.7
11/21/22 - 1600 66.2 15 16.8 45.2 13.7 0.00 0.00 24.4 67.7
11/21/22 - 1500 61.5 22 22.4 44.4 13.7 0.00 0.00 24.4 64.5
11/21/22 - 1400 62.8 19 20.4 44.5 13.7 0.00 0.00 24.4 64.5
11/21/22 - 1300 57.4 27 23.3 42.9 13.8 0.00 0.00 24.4 59.9
11/21/22 - 1200 51.9 43 29.9 42.3 13.8 0.00 0.00 24.4 54.0
11/21/22 - 1100 49.9 46 29.8 41.3 13.9 0.00 0.00 24.4 50.8
11/21/22 - 1000 46.4 46 26.8 38.5 13.9 0.00 0.00 24.4 49.3
11/21/22 - 0900 37.4 66 26.9 33.4 14.1 0.00 0.00 24.4 42.7
11/21/22 - 0800 25.9 86 22.3 24.6 14.3 0.00 0.00 24.4 32.8
11/21/22 - 0700 24.8 86 21.4 23.6 12.6 0.00 0.00 24.4 28.0
11/21/22 - 0600 25.0 86 21.4 23.8 12.7 0.00 0.00 24.5 28.0
11/21/22 - 0500 25.0 85 21.2 23.7 12.8 0.00 0.00 24.5 28.0
11/21/22 - 0400 25.9 85 21.9 24.5 12.8 0.00 0.00 25.4 28.0
Max 72.9 91 41.8 51.8 14.3 0.00 0.00 38.2 73.6
Avg 45.5 58 28.7 38.1 13.3 0.00 - - -
Min 24.8 10 11.9 23.6 12.6 0.00 0.00 24.4 28.0
Total - - - - - 0.00 - - -